createdAt,value
2022-11-13T00:00:56.919Z,0.00
2022-11-13T00:01:56.925Z,0.00
2022-11-13T00:02:56.994Z,0.00
2022-11-13T00:03:56.965Z,0.00
2022-11-13T00:04:56.974Z,0.00
2022-11-13T00:05:56.987Z,0.00
2022-11-13T00:06:59.294Z,0.00
2022-11-13T00:07:56.984Z,0.00
2022-11-13T00:08:57.016Z,359.65
2022-11-13T00:09:57.022Z,321.14
2022-11-13T00:10:57.015Z,315.00
2022-11-13T00:11:56.988Z,315.00
2022-11-13T00:12:56.994Z,315.00
2022-11-13T00:13:56.982Z,315.00
2022-11-13T00:14:57.003Z,315.00
2022-11-13T00:15:56.976Z,315.00
2022-11-13T00:16:57.007Z,315.00
2022-11-13T00:17:57.003Z,1.72
2022-11-13T00:18:57.023Z,0.00
2022-11-13T00:19:56.984Z,0.00
2022-11-13T00:20:56.991Z,0.00
2022-11-13T00:21:57.004Z,6.61
2022-11-13T00:22:57.007Z,90.00
2022-11-13T00:23:56.995Z,90.00
2022-11-13T00:24:57.013Z,346.70
2022-11-13T00:25:57.050Z,315.00
2022-11-13T00:26:56.999Z,315.00
2022-11-13T00:27:57.008Z,315.00
2022-11-13T00:28:57.005Z,315.00
2022-11-13T00:29:57.039Z,341.27
2022-11-13T00:30:57.030Z,0.00
2022-11-13T00:31:57.025Z,0.00
2022-11-13T00:32:57.052Z,0.00
2022-11-13T00:34:19.689Z,0.00
2022-11-13T00:34:57.030Z,0.00
2022-11-13T00:35:57.050Z,0.00
2022-11-13T00:36:57.036Z,0.00
2022-11-13T00:37:57.027Z,0.00
2022-11-13T00:38:57.047Z,0.00
2022-11-13T00:39:59.629Z,0.00
2022-11-13T00:40:57.076Z,0.00
2022-11-13T00:41:57.060Z,0.00
2022-11-13T00:42:57.054Z,0.00
2022-11-13T00:43:57.055Z,0.00
2022-11-13T00:44:57.067Z,0.00
2022-11-13T00:45:57.056Z,0.00
2022-11-13T00:46:57.053Z,0.00
2022-11-13T00:47:57.060Z,0.00
2022-11-13T00:48:57.066Z,0.00
2022-11-13T00:49:57.072Z,0.00
2022-11-13T00:50:57.049Z,0.00
2022-11-13T00:51:57.057Z,0.00
2022-11-13T00:52:57.058Z,0.00
2022-11-13T00:53:57.062Z,0.00
2022-11-13T00:54:57.044Z,0.00
2022-11-13T00:55:57.056Z,0.00
2022-11-13T00:56:57.074Z,0.00
2022-11-13T00:57:57.081Z,47.74
2022-11-13T00:58:57.072Z,0.00
2022-11-13T00:59:57.058Z,0.00
2022-11-13T01:00:57.049Z,0.00
2022-11-13T01:01:57.101Z,0.00
2022-11-13T01:02:57.048Z,100.29
2022-11-13T01:03:57.048Z,135.00
2022-11-13T01:04:57.107Z,125.59
2022-11-13T01:05:57.057Z,322.82
2022-11-13T01:06:57.121Z,315.00
2022-11-13T01:07:57.081Z,315.00
2022-11-13T01:08:57.051Z,315.00
2022-11-13T01:09:57.092Z,316.96
2022-11-13T01:10:57.059Z,120.51
2022-11-13T01:11:57.065Z,63.15
2022-11-13T01:12:57.084Z,132.95
2022-11-13T01:13:57.086Z,135.00
2022-11-13T01:14:57.069Z,135.00
2022-11-13T01:15:57.095Z,135.00
2022-11-13T01:16:57.063Z,135.00
2022-11-13T01:17:57.072Z,135.00
2022-11-13T01:18:57.088Z,135.00
2022-11-13T01:19:57.075Z,135.00
2022-11-13T01:20:57.076Z,135.00
2022-11-13T01:22:19.479Z,315.00
2022-11-13T01:23:19.487Z,315.00
2022-11-13T01:24:19.499Z,315.00
2022-11-13T01:25:19.497Z,315.00
2022-11-13T01:26:19.507Z,315.00
2022-11-13T01:27:19.507Z,315.00
2022-11-13T01:28:19.515Z,315.00
2022-11-13T01:29:19.494Z,315.00
2022-11-13T01:30:19.517Z,77.44
2022-11-13T01:31:19.539Z,135.00
2022-11-13T01:32:19.503Z,135.00
2022-11-13T01:33:19.511Z,116.98
2022-11-13T01:34:19.501Z,0.00
2022-11-13T01:35:19.515Z,0.00
2022-11-13T01:36:19.541Z,0.00
2022-11-13T01:37:19.546Z,0.00
2022-11-13T01:38:19.524Z,0.00
2022-11-13T01:39:19.521Z,0.00
2022-11-13T01:40:19.530Z,0.00
2022-11-13T01:41:23.429Z,0.00
2022-11-13T01:42:19.545Z,0.00
2022-11-13T01:43:19.537Z,0.00
2022-11-13T01:44:19.538Z,0.00
2022-11-13T01:45:19.515Z,0.00
2022-11-13T01:46:19.527Z,0.00
2022-11-13T01:47:19.536Z,0.00
2022-11-13T01:48:19.552Z,0.00
2022-11-13T01:49:19.534Z,0.00
2022-11-13T01:50:19.537Z,0.00
2022-11-13T01:51:19.513Z,0.00
2022-11-13T01:52:19.541Z,0.00
2022-11-13T01:53:19.553Z,0.00
2022-11-13T01:54:19.557Z,0.00
2022-11-13T01:55:19.526Z,0.00
2022-11-13T01:56:19.541Z,0.00
2022-11-13T01:57:19.551Z,0.00
2022-11-13T01:58:19.678Z,0.00
2022-11-13T01:59:19.689Z,0.00
2022-11-13T02:00:19.717Z,0.00
2022-11-13T02:01:19.728Z,0.00
2022-11-13T02:02:19.721Z,0.00
2022-11-13T02:03:19.767Z,0.00
2022-11-13T02:04:19.747Z,0.00
2022-11-13T02:05:19.763Z,0.00
2022-11-13T02:06:19.769Z,0.00
2022-11-13T02:07:19.826Z,0.00
2022-11-13T02:08:19.798Z,67.66
2022-11-13T02:09:19.806Z,106.51
2022-11-13T02:10:19.834Z,123.39
2022-11-13T02:11:19.830Z,135.00
2022-11-13T02:12:19.824Z,135.00
2022-11-13T02:13:19.864Z,135.00
2022-11-13T02:14:19.891Z,135.00
2022-11-13T02:15:19.897Z,135.00
2022-11-13T02:16:19.898Z,135.00
2022-11-13T02:17:19.917Z,135.00
2022-11-13T02:18:19.921Z,135.00
2022-11-13T02:19:19.925Z,135.00
2022-11-13T02:20:19.968Z,135.00
2022-11-13T02:21:19.958Z,135.00
2022-11-13T02:22:19.968Z,135.00
2022-11-13T02:23:20.001Z,135.00
2022-11-13T02:24:19.989Z,135.00
2022-11-13T02:25:20.033Z,135.00
2022-11-13T02:26:20.031Z,135.00
2022-11-13T02:27:20.004Z,135.00
2022-11-13T02:28:20.036Z,135.00
2022-11-13T02:29:20.052Z,135.00
2022-11-13T02:30:25.319Z,135.00
2022-11-13T02:31:20.053Z,135.00
2022-11-13T02:32:20.072Z,135.00
2022-11-13T02:33:20.065Z,135.00
2022-11-13T02:34:20.072Z,135.00
2022-11-13T02:35:20.087Z,135.00
2022-11-13T02:36:20.062Z,135.00
2022-11-13T02:37:20.071Z,135.00
2022-11-13T02:38:20.069Z,135.00
2022-11-13T02:39:20.077Z,135.00
2022-11-13T02:40:20.077Z,135.00
2022-11-13T02:41:20.061Z,135.00
2022-11-13T02:42:20.071Z,135.00
2022-11-13T02:43:20.071Z,135.00
2022-11-13T02:44:20.052Z,135.00
2022-11-13T02:45:20.072Z,135.00
2022-11-13T02:46:20.097Z,135.00
2022-11-13T02:47:20.079Z,135.00
2022-11-13T02:48:20.084Z,135.00
2022-11-13T02:49:20.068Z,135.00
2022-11-13T02:50:20.073Z,134.05
2022-11-13T02:51:20.099Z,0.00
2022-11-13T02:52:20.170Z,0.00
2022-11-13T02:53:20.074Z,0.00
2022-11-13T02:54:20.080Z,0.00
2022-11-13T02:55:20.071Z,0.00
2022-11-13T02:56:20.103Z,356.88
2022-11-13T02:57:20.083Z,225.00
2022-11-13T02:58:20.078Z,123.67
2022-11-13T02:59:20.069Z,135.00
2022-11-13T03:00:20.082Z,135.00
2022-11-13T03:01:20.142Z,135.00
2022-11-13T03:02:20.102Z,135.00
2022-11-13T03:03:41.150Z,135.00
2022-11-13T03:04:20.082Z,135.00
2022-11-13T03:05:20.112Z,135.00
2022-11-13T03:06:20.099Z,135.00
2022-11-13T03:07:20.161Z,135.00
2022-11-13T03:08:20.119Z,135.00
2022-11-13T03:09:20.085Z,135.00
2022-11-13T03:10:20.093Z,135.00
2022-11-13T03:11:20.091Z,135.00
2022-11-13T03:12:20.109Z,135.00
2022-11-13T03:13:20.103Z,135.00
2022-11-13T03:14:20.100Z,135.00
2022-11-13T03:15:20.086Z,135.00
2022-11-13T03:16:20.100Z,135.00
2022-11-13T03:17:20.104Z,135.00
2022-11-13T03:18:20.136Z,135.00
2022-11-13T03:19:20.120Z,135.00
2022-11-13T03:20:20.093Z,135.00
2022-11-13T03:21:20.103Z,135.00
2022-11-13T03:22:20.111Z,135.00
2022-11-13T03:23:20.118Z,135.00
2022-11-13T03:24:20.114Z,135.00
2022-11-13T03:25:20.109Z,135.00
2022-11-13T03:26:20.121Z,135.00
2022-11-13T03:27:20.111Z,135.00
2022-11-13T03:28:20.104Z,135.00
2022-11-13T03:29:20.126Z,135.00
2022-11-13T03:30:20.122Z,135.00
2022-11-13T03:31:20.104Z,135.00
2022-11-13T03:32:20.115Z,135.00
2022-11-13T03:33:20.119Z,135.00
2022-11-13T03:34:20.130Z,135.00
2022-11-13T03:35:20.130Z,135.00
2022-11-13T03:36:20.112Z,135.00
2022-11-13T03:37:20.110Z,135.00
2022-11-13T03:38:20.117Z,135.00
2022-11-13T03:39:20.128Z,135.00
2022-11-13T03:40:20.150Z,135.00
2022-11-13T03:41:20.175Z,135.00
2022-11-13T03:42:20.163Z,135.00
2022-11-13T03:43:20.173Z,135.00
2022-11-13T03:44:20.196Z,135.00
2022-11-13T03:45:20.197Z,135.00
2022-11-13T03:46:20.238Z,135.00
2022-11-13T03:47:20.232Z,135.00
2022-11-13T03:48:20.251Z,135.00
2022-11-13T03:49:20.237Z,135.00
2022-11-13T03:50:20.275Z,135.00
2022-11-13T03:51:20.293Z,135.00
2022-11-13T03:52:20.279Z,135.00
2022-11-13T03:53:20.298Z,135.00
2022-11-13T03:54:20.327Z,135.00
2022-11-13T03:55:20.326Z,135.00
2022-11-13T03:56:20.340Z,135.00
2022-11-13T03:57:20.349Z,135.00
2022-11-13T03:58:20.360Z,135.00
2022-11-13T03:59:20.355Z,135.00
2022-11-13T04:00:20.380Z,135.00
2022-11-13T04:01:20.498Z,135.00
2022-11-13T04:02:20.420Z,135.00
2022-11-13T04:03:20.420Z,135.00
2022-11-13T04:04:20.441Z,135.00
2022-11-13T04:05:22.828Z,135.00
2022-11-13T04:06:20.570Z,135.00
2022-11-13T04:07:20.660Z,135.00
2022-11-13T04:08:20.599Z,135.00
2022-11-13T04:09:20.614Z,135.00
2022-11-13T04:10:20.619Z,135.00
2022-11-13T04:11:20.600Z,135.00
2022-11-13T04:12:20.684Z,135.00
2022-11-13T04:13:20.645Z,135.00
2022-11-13T04:14:20.656Z,135.00
2022-11-13T04:15:20.678Z,135.00
2022-11-13T04:16:20.688Z,135.00
2022-11-13T04:17:20.693Z,135.00
2022-11-13T04:18:20.710Z,135.00
2022-11-13T04:19:20.708Z,135.00
2022-11-13T04:20:20.738Z,135.00
2022-11-13T04:21:20.735Z,135.00
2022-11-13T04:22:20.777Z,135.00
2022-11-13T04:23:20.771Z,135.00
2022-11-13T04:24:20.783Z,135.00
2022-11-13T04:25:20.788Z,135.00
2022-11-13T04:26:20.787Z,135.00
2022-11-13T04:27:20.819Z,135.00
2022-11-13T04:28:20.817Z,135.00
2022-11-13T04:29:20.855Z,135.00
2022-11-13T04:30:20.832Z,135.00
2022-11-13T04:31:20.863Z,135.00
2022-11-13T04:32:20.885Z,135.00
2022-11-13T04:33:20.890Z,135.00
2022-11-13T04:34:20.887Z,135.00
2022-11-13T04:35:20.880Z,135.00
2022-11-13T04:36:20.918Z,135.00
2022-11-13T04:37:20.927Z,135.00
2022-11-13T04:38:20.956Z,135.00
2022-11-13T04:39:20.948Z,135.00
2022-11-13T04:40:20.957Z,135.00
2022-11-13T04:41:20.988Z,135.00
2022-11-13T04:42:21.018Z,135.00
2022-11-13T04:43:21.033Z,135.00
2022-11-13T04:44:21.011Z,135.00
2022-11-13T04:45:21.021Z,135.00
2022-11-13T04:46:21.043Z,135.00
2022-11-13T04:47:21.048Z,135.00
2022-11-13T04:48:21.074Z,135.00
2022-11-13T04:49:21.064Z,135.00
2022-11-13T04:50:21.083Z,135.00
2022-11-13T04:51:21.094Z,135.00
2022-11-13T04:52:21.106Z,135.00
2022-11-13T04:53:21.123Z,135.00
2022-11-13T04:54:25.788Z,135.00
2022-11-13T04:55:21.123Z,135.00
2022-11-13T04:56:21.127Z,135.00
2022-11-13T04:57:21.138Z,135.00
2022-11-13T04:58:21.141Z,135.00
2022-11-13T04:59:21.131Z,135.00
2022-11-13T05:00:21.121Z,135.00
2022-11-13T05:01:21.191Z,135.00
2022-11-13T05:02:21.117Z,135.00
2022-11-13T05:03:21.147Z,135.00
2022-11-13T05:04:21.124Z,135.00
2022-11-13T05:05:21.141Z,135.00
2022-11-13T05:06:21.136Z,135.00
2022-11-13T05:07:21.205Z,135.00
2022-11-13T05:08:21.141Z,135.00
2022-11-13T05:09:21.133Z,135.00
2022-11-13T05:10:21.145Z,135.00
2022-11-13T05:11:21.126Z,135.00
2022-11-13T05:12:21.129Z,135.00
2022-11-13T05:13:21.136Z,135.00
2022-11-13T05:14:21.157Z,135.00
2022-11-13T05:15:21.153Z,135.00
2022-11-13T05:16:21.128Z,135.00
2022-11-13T05:17:21.146Z,135.00
2022-11-13T05:18:21.154Z,135.00
2022-11-13T05:19:21.156Z,135.00
2022-11-13T05:20:21.149Z,135.00
2022-11-13T05:21:21.152Z,135.00
2022-11-13T05:22:21.176Z,135.00
2022-11-13T05:23:21.160Z,135.00
2022-11-13T05:24:21.164Z,135.00
2022-11-13T05:25:21.157Z,135.00
2022-11-13T05:26:21.144Z,135.00
2022-11-13T05:27:21.169Z,135.00
2022-11-13T05:28:21.148Z,135.00
2022-11-13T05:29:21.153Z,135.00
2022-11-13T05:30:21.180Z,135.00
2022-11-13T05:31:21.145Z,135.00
2022-11-13T05:32:21.153Z,135.00
2022-11-13T05:33:21.168Z,135.00
2022-11-13T05:34:21.155Z,135.00
2022-11-13T05:35:21.161Z,135.00
2022-11-13T05:36:21.158Z,135.00
2022-11-13T05:37:21.163Z,135.00
2022-11-13T05:38:21.162Z,135.00
2022-11-13T05:39:21.164Z,135.00
2022-11-13T05:40:21.189Z,135.00
2022-11-13T05:41:21.195Z,135.00
2022-11-13T05:42:21.165Z,135.00
2022-11-13T05:43:21.166Z,135.00
2022-11-13T05:44:21.156Z,135.00
2022-11-13T05:45:21.171Z,135.00
2022-11-13T05:46:21.173Z,135.00
2022-11-13T05:47:21.169Z,135.00
2022-11-13T05:48:21.173Z,135.00
2022-11-13T05:49:21.173Z,135.00
2022-11-13T05:50:21.165Z,135.00
2022-11-13T05:51:21.176Z,116.09
2022-11-13T05:52:21.178Z,0.00
2022-11-13T05:53:21.207Z,0.00
2022-11-13T05:54:21.188Z,0.00
2022-11-13T05:55:23.464Z,0.00
2022-11-13T05:56:21.174Z,0.00
2022-11-13T05:57:21.183Z,0.00
2022-11-13T05:58:21.181Z,0.00
2022-11-13T05:59:21.184Z,0.00
2022-11-13T06:00:21.187Z,0.00
2022-11-13T06:01:21.186Z,0.00
2022-11-13T06:02:21.236Z,0.00
2022-11-13T06:03:21.178Z,0.00
2022-11-13T06:04:21.196Z,0.00
2022-11-13T06:05:21.225Z,0.00
2022-11-13T06:06:21.212Z,0.00
2022-11-13T06:07:21.258Z,0.00
2022-11-13T06:08:21.244Z,0.00
2022-11-13T06:09:21.269Z,0.00
2022-11-13T06:10:21.255Z,0.00
2022-11-13T06:11:21.275Z,0.00
2022-11-13T06:12:21.281Z,0.00
2022-11-13T06:13:21.312Z,0.00
2022-11-13T06:14:21.352Z,0.00
2022-11-13T06:15:21.353Z,0.00
2022-11-13T06:16:21.446Z,0.00
2022-11-13T06:17:21.335Z,0.00
2022-11-13T06:18:26.175Z,0.00
2022-11-13T06:19:21.349Z,0.00
2022-11-13T06:20:21.384Z,0.00
2022-11-13T06:21:21.368Z,0.00
2022-11-13T06:22:21.353Z,0.00
2022-11-13T06:23:21.357Z,0.00
2022-11-13T06:24:21.339Z,0.00
2022-11-13T06:25:21.368Z,0.00
2022-11-13T06:26:21.368Z,0.00
2022-11-13T06:27:21.362Z,0.00
2022-11-13T06:28:21.366Z,0.00
2022-11-13T06:29:21.368Z,0.00
2022-11-13T06:30:21.360Z,0.00
2022-11-13T06:31:21.378Z,0.00
2022-11-13T06:32:21.366Z,0.00
2022-11-13T06:33:21.380Z,0.00
2022-11-13T06:34:21.383Z,0.00
2022-11-13T06:35:21.371Z,0.00
2022-11-13T06:36:21.372Z,0.00
2022-11-13T06:37:21.390Z,0.00
2022-11-13T06:38:21.379Z,0.00
2022-11-13T06:39:21.418Z,0.00
2022-11-13T06:40:21.363Z,0.00
2022-11-13T06:41:21.357Z,0.00
2022-11-13T06:42:21.387Z,0.00
2022-11-13T06:43:21.389Z,0.00
2022-11-13T06:44:21.375Z,0.00
2022-11-13T06:45:21.382Z,0.00
2022-11-13T06:46:21.384Z,0.00
2022-11-13T06:47:21.388Z,0.00
2022-11-13T06:48:21.385Z,0.00
2022-11-13T06:49:21.407Z,0.00
2022-11-13T06:50:21.392Z,0.00
2022-11-13T06:51:21.380Z,0.00
2022-11-13T06:52:21.379Z,0.00
2022-11-13T06:53:21.399Z,0.00
2022-11-13T06:54:21.395Z,0.00
2022-11-13T06:55:21.387Z,0.00
2022-11-13T06:56:21.385Z,0.00
2022-11-13T06:57:21.392Z,0.00
2022-11-13T06:58:21.391Z,0.00
2022-11-13T06:59:21.397Z,0.00
2022-11-13T07:00:21.385Z,0.00
2022-11-13T07:01:21.444Z,0.00
2022-11-13T07:02:21.390Z,0.00
2022-11-13T07:03:21.397Z,0.00
2022-11-13T07:04:21.402Z,0.00
2022-11-13T07:05:21.401Z,0.00
2022-11-13T07:06:21.403Z,0.00
2022-11-13T07:07:21.430Z,0.00
2022-11-13T07:08:21.415Z,0.00
2022-11-13T07:09:21.415Z,0.00
2022-11-13T07:10:21.403Z,0.00
2022-11-13T07:11:21.404Z,0.00
2022-11-13T07:12:21.398Z,0.00
2022-11-13T07:13:21.387Z,0.00
2022-11-13T07:14:21.410Z,0.00
2022-11-13T07:15:21.401Z,0.00
2022-11-13T07:16:21.410Z,0.00
2022-11-13T07:17:21.406Z,0.00
2022-11-13T07:18:25.025Z,0.00
2022-11-13T07:19:21.407Z,0.00
2022-11-13T07:20:21.416Z,0.00
2022-11-13T07:21:21.407Z,0.00
2022-11-13T07:22:21.396Z,0.00
2022-11-13T07:23:21.416Z,0.00
2022-11-13T07:24:21.431Z,0.00
2022-11-13T07:25:21.422Z,0.00
2022-11-13T07:26:21.418Z,0.00
2022-11-13T07:27:21.414Z,0.00
2022-11-13T07:28:21.414Z,0.00
2022-11-13T07:29:21.421Z,0.00
2022-11-13T07:30:21.406Z,0.00
2022-11-13T07:31:21.410Z,0.00
2022-11-13T07:32:21.401Z,0.00
2022-11-13T07:33:21.432Z,0.00
2022-11-13T07:34:21.414Z,0.00
2022-11-13T07:35:21.435Z,0.00
2022-11-13T07:36:21.411Z,0.00
2022-11-13T07:37:21.428Z,0.00
2022-11-13T07:38:21.408Z,0.00
2022-11-13T07:39:21.429Z,0.00
2022-11-13T07:40:21.420Z,0.00
2022-11-13T07:41:21.415Z,0.00
2022-11-13T07:42:21.427Z,0.00
2022-11-13T07:43:21.423Z,0.00
2022-11-13T07:44:47.708Z,0.00
2022-11-13T07:45:21.440Z,0.00
2022-11-13T07:46:21.434Z,0.00
2022-11-13T07:47:21.450Z,0.00
2022-11-13T07:48:21.427Z,0.00
2022-11-13T07:49:21.438Z,0.00
2022-11-13T07:50:21.424Z,0.00
2022-11-13T07:51:21.431Z,0.00
2022-11-13T07:52:21.460Z,0.00
2022-11-13T07:53:21.432Z,0.00
2022-11-13T07:54:21.431Z,0.00
2022-11-13T07:55:21.444Z,0.00
2022-11-13T07:56:23.165Z,0.00
2022-11-13T07:57:21.474Z,0.00
2022-11-13T07:58:21.441Z,0.00
2022-11-13T07:59:21.448Z,0.00
2022-11-13T08:00:21.453Z,0.00
2022-11-13T08:01:21.512Z,0.00
2022-11-13T08:02:26.345Z,0.00
2022-11-13T08:03:21.449Z,0.00
2022-11-13T08:04:21.432Z,0.00
2022-11-13T08:05:21.439Z,0.00
2022-11-13T08:06:21.441Z,0.00
2022-11-13T08:07:21.543Z,0.00
2022-11-13T08:08:21.440Z,0.00
2022-11-13T08:09:21.472Z,0.00
2022-11-13T08:10:21.445Z,0.00
2022-11-13T08:11:21.460Z,0.00
2022-11-13T08:12:21.466Z,0.00
2022-11-13T08:13:21.444Z,0.00
2022-11-13T08:14:21.459Z,0.00
2022-11-13T08:15:21.467Z,0.00
2022-11-13T08:16:21.459Z,0.00
2022-11-13T08:17:21.451Z,0.00
2022-11-13T08:18:21.433Z,0.00
2022-11-13T08:19:21.466Z,0.00
2022-11-13T08:20:21.458Z,0.00
2022-11-13T08:21:21.499Z,0.00
2022-11-13T08:22:21.459Z,0.00
2022-11-13T08:23:21.457Z,0.00
2022-11-13T08:24:21.464Z,0.00
2022-11-13T08:25:21.467Z,0.00
2022-11-13T08:26:21.481Z,0.00
2022-11-13T08:27:21.465Z,0.00
2022-11-13T08:28:21.498Z,0.00
2022-11-13T08:29:21.463Z,0.00
2022-11-13T08:30:21.474Z,0.00
2022-11-13T08:31:21.469Z,0.00
2022-11-13T08:32:21.473Z,0.00
2022-11-13T08:33:21.506Z,0.00
2022-11-13T08:34:21.475Z,0.00
2022-11-13T08:35:26.562Z,0.00
2022-11-13T08:36:21.486Z,0.00
2022-11-13T08:37:21.469Z,360.00
2022-11-13T08:38:21.479Z,0.00
2022-11-13T08:39:21.464Z,0.00
2022-11-13T08:40:21.509Z,0.00
2022-11-13T08:41:21.473Z,0.00
2022-11-13T08:42:21.468Z,0.00
2022-11-13T08:43:21.479Z,0.00
2022-11-13T08:44:21.480Z,0.00
2022-11-13T08:45:21.519Z,0.00
2022-11-13T08:46:21.492Z,0.00
2022-11-13T08:47:25.540Z,0.00
2022-11-13T08:48:21.475Z,0.00
2022-11-13T08:49:21.479Z,0.00
2022-11-13T08:50:21.499Z,0.00
2022-11-13T08:51:21.490Z,0.00
2022-11-13T08:52:21.487Z,0.00
2022-11-13T08:53:21.494Z,0.00
2022-11-13T08:54:21.484Z,0.00
2022-11-13T08:55:21.492Z,0.00
2022-11-13T08:56:21.505Z,0.00
2022-11-13T08:57:21.497Z,0.00
2022-11-13T08:58:21.495Z,0.00
2022-11-13T08:59:21.495Z,0.00
2022-11-13T09:00:21.480Z,0.00
2022-11-13T09:01:21.507Z,0.00
2022-11-13T09:02:21.523Z,0.00
2022-11-13T09:03:21.672Z,0.00
2022-11-13T09:04:21.519Z,0.00
2022-11-13T09:05:21.497Z,0.00
2022-11-13T09:06:21.512Z,0.00
2022-11-13T09:07:27.019Z,0.00
2022-11-13T09:08:21.512Z,0.00
2022-11-13T09:09:21.512Z,0.00
2022-11-13T09:10:21.492Z,0.00
2022-11-13T09:11:21.507Z,0.00
2022-11-13T09:12:21.503Z,0.00
2022-11-13T09:13:21.517Z,0.00
2022-11-13T09:14:21.491Z,0.00
2022-11-13T09:15:24.427Z,0.00
2022-11-13T09:16:21.521Z,0.00
2022-11-13T09:17:21.527Z,0.00
2022-11-13T09:18:21.523Z,0.00
2022-11-13T09:19:21.529Z,0.00
2022-11-13T09:20:22.914Z,0.00
2022-11-13T09:21:21.513Z,0.00
2022-11-13T09:22:21.535Z,0.00
2022-11-13T09:23:21.522Z,0.00
2022-11-13T09:24:21.502Z,0.00
2022-11-13T09:25:21.558Z,0.00
2022-11-13T09:26:21.511Z,0.00
2022-11-13T09:27:21.532Z,0.00
2022-11-13T09:28:21.525Z,0.00
2022-11-13T09:29:21.534Z,0.00
2022-11-13T09:30:21.542Z,0.00
2022-11-13T09:31:21.505Z,0.00
2022-11-13T09:32:21.512Z,0.00
2022-11-13T09:33:21.536Z,0.00
2022-11-13T09:34:21.505Z,0.00
2022-11-13T09:35:21.551Z,0.00
2022-11-13T09:36:21.549Z,0.00
2022-11-13T09:37:21.518Z,355.44
2022-11-13T09:38:21.537Z,315.00
2022-11-13T09:39:21.657Z,315.00
2022-11-13T09:40:21.614Z,320.82
2022-11-13T09:41:21.522Z,315.00
2022-11-13T09:42:21.531Z,308.77
2022-11-13T09:43:21.557Z,320.74
2022-11-13T09:44:21.547Z,233.14
2022-11-13T09:45:21.549Z,42.90
2022-11-13T09:46:21.545Z,126.43
2022-11-13T09:47:21.546Z,334.43
2022-11-13T09:48:21.554Z,225.00
2022-11-13T09:49:21.544Z,286.91
2022-11-13T09:50:21.570Z,333.44
2022-11-13T09:51:21.535Z,0.00
2022-11-13T09:52:21.554Z,355.06
2022-11-13T09:53:21.551Z,359.16
2022-11-13T09:54:21.558Z,315.86
2022-11-13T09:55:21.547Z,315.00
2022-11-13T09:56:21.540Z,315.00
2022-11-13T09:57:25.864Z,315.00
2022-11-13T09:58:21.551Z,159.96
2022-11-13T09:59:21.559Z,358.05
2022-11-13T10:00:21.645Z,328.45
2022-11-13T10:01:21.655Z,311.62
2022-11-13T10:02:21.554Z,324.34
2022-11-13T10:03:46.336Z,0.00
2022-11-13T10:04:21.578Z,307.88
2022-11-13T10:05:21.554Z,286.69
2022-11-13T10:06:21.548Z,315.00
2022-11-13T10:07:21.583Z,315.00
2022-11-13T10:08:21.593Z,346.02
2022-11-13T10:09:21.593Z,346.60
2022-11-13T10:10:21.664Z,315.00
2022-11-13T10:11:21.556Z,315.00
2022-11-13T10:12:21.570Z,315.00
2022-11-13T10:13:21.531Z,315.00
2022-11-13T10:14:21.583Z,315.00
2022-11-13T10:15:21.544Z,315.00
2022-11-13T10:16:21.568Z,349.04
2022-11-13T10:17:21.546Z,318.62
2022-11-13T10:18:21.584Z,356.66
2022-11-13T10:19:21.604Z,0.00
2022-11-13T10:20:21.581Z,0.00
2022-11-13T10:21:21.579Z,0.00
2022-11-13T10:22:32.947Z,0.00
2022-11-13T10:23:21.557Z,348.85
2022-11-13T10:24:21.574Z,315.00
2022-11-13T10:25:21.590Z,354.64
2022-11-13T10:26:21.561Z,46.71
2022-11-13T10:27:21.569Z,90.00
2022-11-13T10:28:48.812Z,57.17
2022-11-13T10:29:21.607Z,315.00
2022-11-13T10:30:21.608Z,315.00
2022-11-13T10:31:21.571Z,315.00
2022-11-13T10:32:21.560Z,315.00
2022-11-13T10:33:21.576Z,315.00
2022-11-13T10:34:21.600Z,315.00
2022-11-13T10:35:21.574Z,315.00
2022-11-13T10:36:21.601Z,315.00
2022-11-13T10:37:21.584Z,315.00
2022-11-13T10:38:21.583Z,315.00
2022-11-13T10:39:21.596Z,315.00
2022-11-13T10:40:21.593Z,315.00
2022-11-13T10:41:21.565Z,315.00
2022-11-13T10:42:21.579Z,315.00
2022-11-13T10:43:21.578Z,315.00
2022-11-13T10:44:21.583Z,315.00
2022-11-13T10:45:21.621Z,315.00
2022-11-13T10:46:21.587Z,315.00
2022-11-13T10:47:42.516Z,315.00
2022-11-13T10:48:21.617Z,315.00
2022-11-13T10:49:21.588Z,315.00
2022-11-13T10:50:21.601Z,315.00
2022-11-13T10:51:21.605Z,315.00
2022-11-13T10:52:21.592Z,315.00
2022-11-13T10:53:21.616Z,315.00
2022-11-13T10:54:21.608Z,315.00
2022-11-13T10:55:21.585Z,315.00
2022-11-13T10:56:21.616Z,315.00
2022-11-13T10:57:21.595Z,315.00
2022-11-13T10:58:21.616Z,315.00
2022-11-13T10:59:21.585Z,315.00
2022-11-13T11:00:21.594Z,315.00
2022-11-13T11:01:21.786Z,315.00
2022-11-13T11:02:21.599Z,315.00
2022-11-13T11:03:21.603Z,315.00
2022-11-13T11:04:21.614Z,315.00
2022-11-13T11:05:21.611Z,315.00
2022-11-13T11:06:21.610Z,315.00
2022-11-13T11:07:21.886Z,315.00
2022-11-13T11:08:21.604Z,315.00
2022-11-13T11:09:21.641Z,315.00
2022-11-13T11:10:21.594Z,315.00
2022-11-13T11:11:21.610Z,315.00
2022-11-13T11:12:27.231Z,315.00
2022-11-13T11:13:21.596Z,315.00
2022-11-13T11:14:21.624Z,315.00
2022-11-13T11:15:21.619Z,315.00
2022-11-13T11:16:21.631Z,315.00
2022-11-13T11:17:21.636Z,315.00
2022-11-13T11:18:21.596Z,315.00
2022-11-13T11:19:21.612Z,315.00
2022-11-13T11:20:21.610Z,315.00
2022-11-13T11:21:21.600Z,315.00
2022-11-13T11:22:21.626Z,315.00
2022-11-13T11:23:21.650Z,315.00
2022-11-13T11:24:21.634Z,315.00
2022-11-13T11:25:21.613Z,315.00
2022-11-13T11:26:21.618Z,315.00
2022-11-13T11:27:21.630Z,315.00
2022-11-13T11:28:21.622Z,315.00
2022-11-13T11:29:21.631Z,315.00
2022-11-13T11:30:21.615Z,315.00
2022-11-13T11:31:21.627Z,315.00
2022-11-13T11:32:21.635Z,315.00
2022-11-13T11:33:21.611Z,315.00
2022-11-13T11:34:21.634Z,315.00
2022-11-13T11:35:21.614Z,315.00
2022-11-13T11:36:21.632Z,315.00
2022-11-13T11:37:21.631Z,315.00
2022-11-13T11:38:21.657Z,315.00
2022-11-13T11:39:21.630Z,315.00
2022-11-13T11:40:21.641Z,315.00
2022-11-13T11:41:21.643Z,315.00
2022-11-13T11:42:21.657Z,315.00
2022-11-13T11:43:21.634Z,315.00
2022-11-13T11:44:21.635Z,325.76
2022-11-13T11:45:21.631Z,329.90
2022-11-13T11:46:21.668Z,35.37
2022-11-13T11:47:21.658Z,90.00
2022-11-13T11:48:21.643Z,90.00
2022-11-13T11:49:21.632Z,90.00
2022-11-13T11:50:21.670Z,90.00
2022-11-13T11:51:21.658Z,30.35
2022-11-13T11:52:21.643Z,0.00
2022-11-13T11:53:21.636Z,354.46
2022-11-13T11:54:21.641Z,315.00
2022-11-13T11:55:21.659Z,315.00
2022-11-13T11:56:21.658Z,315.00
2022-11-13T11:57:21.637Z,315.00
2022-11-13T11:58:21.646Z,315.00
2022-11-13T11:59:21.647Z,315.00
2022-11-13T12:00:21.664Z,315.00
2022-11-13T12:01:21.658Z,315.00
2022-11-13T12:02:21.661Z,315.00
2022-11-13T12:03:21.646Z,315.00
2022-11-13T12:04:21.695Z,315.00
2022-11-13T12:05:21.795Z,315.00
2022-11-13T12:06:21.658Z,3.89
2022-11-13T12:07:21.680Z,352.43
2022-11-13T12:08:21.676Z,197.52
2022-11-13T12:09:21.666Z,193.87
2022-11-13T12:10:21.665Z,70.49
2022-11-13T12:11:21.701Z,129.01
2022-11-13T12:12:21.658Z,320.20
2022-11-13T12:13:21.663Z,341.86
2022-11-13T12:14:21.658Z,315.00
2022-11-13T12:15:21.673Z,315.00
2022-11-13T12:16:25.125Z,315.00
2022-11-13T12:17:21.672Z,284.13
2022-11-13T12:18:21.667Z,1.58
2022-11-13T12:19:21.670Z,29.49
2022-11-13T12:20:21.706Z,233.69
2022-11-13T12:21:21.682Z,315.00
2022-11-13T12:22:21.686Z,126.14
2022-11-13T12:23:21.675Z,331.76
2022-11-13T12:24:21.670Z,2.90
2022-11-13T12:25:21.676Z,90.00
2022-11-13T12:26:21.694Z,90.00
2022-11-13T12:27:21.686Z,90.00
2022-11-13T12:28:21.684Z,90.00
2022-11-13T12:29:21.674Z,90.00
2022-11-13T12:30:21.691Z,90.00
2022-11-13T12:31:21.691Z,98.35
2022-11-13T12:32:21.679Z,27.50
2022-11-13T12:33:21.709Z,333.76
2022-11-13T12:34:21.689Z,303.68
2022-11-13T12:35:21.684Z,231.38
2022-11-13T12:36:21.688Z,19.94
2022-11-13T12:37:21.693Z,154.19
2022-11-13T12:38:21.712Z,319.30
2022-11-13T12:39:21.704Z,183.71
2022-11-13T12:40:21.707Z,337.18
2022-11-13T12:41:21.686Z,180.00
2022-11-13T12:42:21.701Z,210.53
2022-11-13T12:43:21.700Z,135.00
2022-11-13T12:44:21.713Z,135.00
2022-11-13T12:45:21.708Z,315.00
2022-11-13T12:46:21.709Z,272.78
2022-11-13T12:47:21.713Z,284.58
2022-11-13T12:48:21.693Z,315.00
2022-11-13T12:49:21.719Z,315.00
2022-11-13T12:50:21.711Z,315.00